Time;durP1;ratioP1;P1;durP2;ratioP2;P2;SDS_P1;SDS_P2;PMS_P1;PMS_P2;Temp;Humidity;BMP_temperature;BMP_pressure;BME280_temperature;BME280_humidity;BME280_pressure;Samples;Min_cycle;Max_cycle;Signal;HPM_P1;HPM_P2
2024/01/21 00:00:31;;;;;;;46.40;22.27;;;-6.30;99.90;;;;;;4209641;28;20040;-60
2024/01/21 00:02:33;;;;;;;44.80;20.17;;;-6.30;99.90;;;;;;4210203;28;20036;-61
2024/01/21 00:04:34;;;;;;;47.88;21.73;;;-6.30;99.90;;;;;;4210366;28;20128;-60
2024/01/21 00:06:35;;;;;;;49.58;22.38;;;-6.30;99.90;;;;;;4209723;28;20089;-60
2024/01/21 00:08:36;;;;;;;48.00;22.63;;;-6.40;99.90;;;;;;4210473;28;20464;-60
2024/01/21 00:10:37;;;;;;;47.30;21.58;;;-6.40;99.90;;;;;;4209555;28;20031;-60
2024/01/21 00:12:38;;;;;;;45.00;22.45;;;-6.50;99.90;;;;;;4210472;28;20105;-60
2024/01/21 00:14:40;;;;;;;51.20;22.33;;;-6.50;99.90;;;;;;4209761;28;20073;-58
2024/01/21 00:16:41;;;;;;;49.10;22.13;;;-6.50;99.90;;;;;;4210532;28;20093;-60
2024/01/21 00:18:43;;;;;;;48.78;21.38;;;-6.50;99.90;;;;;;4209595;28;20032;-60
2024/01/21 00:20:44;;;;;;;54.15;23.00;;;-6.50;99.90;;;;;;4209851;28;20411;-60
2024/01/21 00:22:45;;;;;;;51.60;22.40;;;-6.50;99.90;;;;;;4209598;28;20035;-59
2024/01/21 00:24:46;;;;;;;56.72;21.38;;;-6.50;99.90;;;;;;4209919;28;20093;-60
2024/01/21 00:26:47;;;;;;;46.10;20.85;;;-6.60;99.90;;;;;;4209497;28;20044;-58
2024/01/21 00:28:48;;;;;;;47.88;20.85;;;-6.70;99.90;;;;;;4209974;28;20032;-60
2024/01/21 00:30:50;;;;;;;50.78;22.13;;;-6.70;99.90;;;;;;4209867;28;20476;-59
2024/01/21 00:32:51;;;;;;;55.55;20.27;;;-6.70;99.90;;;;;;4209774;28;20044;-60
2024/01/21 00:34:52;;;;;;;50.10;20.88;;;-6.70;99.90;;;;;;4209880;28;20050;-54
2024/01/21 00:36:53;;;;;;;47.10;19.63;;;-6.80;99.90;;;;;;4209518;28;20035;-60
2024/01/21 00:38:54;;;;;;;50.20;21.98;;;-6.70;99.90;;;;;;4210069;28;20024;-62
2024/01/21 00:40:56;;;;;;;52.97;20.92;;;-6.80;99.90;;;;;;4208958;28;20061;-60
2024/01/21 00:42:59;;;;;;;51.17;21.02;;;-6.80;99.90;;;;;;4210058;28;20036;-60
2024/01/21 00:45:00;;;;;;;48.97;19.17;;;-6.80;99.90;;;;;;4209679;28;20024;-60
2024/01/21 00:47:01;;;;;;;45.28;18.98;;;-6.80;99.90;;;;;;4210216;28;20426;-60
2024/01/21 00:49:02;;;;;;;43.50;18.83;;;-6.90;99.90;;;;;;4208794;28;20036;-59
2024/01/21 00:51:04;;;;;;;45.08;19.63;;;-6.80;99.90;;;;;;4210028;28;20082;-61
2024/01/21 00:53:05;;;;;;;43.95;19.00;;;-6.90;99.90;;;;;;4209262;28;20093;-58
2024/01/21 00:55:06;;;;;;;47.80;18.10;;;-6.90;99.90;;;;;;4210133;28;20062;-61
2024/01/21 00:57:07;;;;;;;40.13;17.20;;;-6.80;99.90;;;;;;4208468;28;20434;-60
2024/01/21 00:59:08;;;;;;;35.15;16.65;;;-6.90;99.90;;;;;;4209826;28;20028;-61
2024/01/21 01:01:10;;;;;;;33.90;15.10;;;-6.90;99.90;;;;;;4207884;28;20420;-61
2024/01/21 01:03:11;;;;;;;37.47;17.40;;;-6.80;99.90;;;;;;4208978;28;20032;-60
2024/01/21 01:05:12;;;;;;;42.20;17.00;;;-6.80;99.90;;;;;;4209776;28;20132;-60
2024/01/21 01:07:13;;;;;;;33.15;16.02;;;-6.80;99.90;;;;;;4208156;28;20058;-58
2024/01/21 01:09:15;;;;;;;34.92;16.08;;;-6.80;99.90;;;;;;4209162;28;20205;-60
2024/01/21 01:11:16;;;;;;;38.65;16.60;;;-6.80;99.90;;;;;;4208761;28;20101;-61
2024/01/21 01:13:17;;;;;;;37.92;15.82;;;-6.80;99.90;;;;;;4209770;28;20245;-58
2024/01/21 01:15:18;;;;;;;34.20;16.35;;;-6.80;99.90;;;;;;4209053;28;20094;-59
2024/01/21 01:17:19;;;;;;;32.35;15.85;;;-6.80;99.90;;;;;;4209876;28;20044;-61
2024/01/21 01:19:21;;;;;;;36.40;17.08;;;-6.70;99.90;;;;;;4208879;28;20036;-59
2024/01/21 01:21:22;;;;;;;31.80;15.73;;;-6.80;99.90;;;;;;4209515;28;20106;-60
2024/01/21 01:23:23;;;;;;;34.80;15.50;;;-6.70;99.90;;;;;;4208844;28;20093;-60
2024/01/21 01:25:26;;;;;;;34.20;16.77;;;-6.80;99.90;;;;;;4210009;28;20039;-59
2024/01/21 01:27:27;;;;;;;35.17;16.65;;;-6.90;99.90;;;;;;4207998;28;20461;-61
2024/01/21 01:29:28;;;;;;;36.78;16.27;;;-7.00;99.90;;;;;;4207598;28;20093;-61
2024/01/21 01:31:30;;;;;;;45.90;18.55;;;-7.10;99.90;;;;;;4209351;28;20070;-60
2024/01/21 01:33:31;;;;;;;40.50;17.73;;;-7.20;99.90;;;;;;4212352;28;20036;-60
2024/01/21 01:35:32;;;;;;;37.45;17.25;;;-7.30;99.90;;;;;;4211815;28;20488;-58
2024/01/21 01:37:33;;;;;;;46.17;17.55;;;-7.40;99.90;;;;;;4212070;28;20105;-60
2024/01/21 01:39:35;;;;;;;46.90;20.00;;;-7.50;99.90;;;;;;4212757;28;20093;-59
2024/01/21 01:41:36;;;;;;;47.42;20.38;;;-7.50;99.90;;;;;;4212015;28;20040;-58
2024/01/21 01:43:37;;;;;;;45.50;18.65;;;-7.50;99.90;;;;;;4213053;28;20073;-59
2024/01/21 01:45:38;;;;;;;43.00;18.67;;;-7.50;99.90;;;;;;4211602;28;20044;-61
2024/01/21 01:47:40;;;;;;;47.33;19.67;;;-7.60;99.90;;;;;;4212672;28;20476;-61
2024/01/21 01:49:42;;;;;;;43.30;18.73;;;-7.60;99.90;;;;;;4211824;28;20430;-60
2024/01/21 01:51:44;;;;;;;48.72;19.95;;;-7.60;99.90;;;;;;4212961;28;20545;-60
2024/01/21 01:53:45;;;;;;;42.05;18.85;;;-7.60;99.90;;;;;;4211824;28;20032;-59
2024/01/21 01:55:47;;;;;;;44.00;19.02;;;-7.60;99.90;;;;;;4212646;28;20040;-60
2024/01/21 01:57:48;;;;;;;51.65;19.88;;;-7.60;99.90;;;;;;4211251;28;20093;-61
2024/01/21 01:59:49;;;;;;;43.17;19.70;;;-7.60;99.90;;;;;;4212533;28;20066;-59
2024/01/21 02:01:51;;;;;;;45.45;20.08;;;-7.60;99.90;;;;;;4211698;28;20089;-59
2024/01/21 02:03:52;;;;;;;50.25;20.98;;;-7.60;99.90;;;;;;4211944;28;20043;-58
2024/01/21 02:05:53;;;;;;;38.85;18.92;;;-7.70;99.90;;;;;;4212037;28;20032;-57
2024/01/21 02:07:55;;;;;;;36.70;18.13;;;-7.70;99.90;;;;;;4211802;28;20028;-60
2024/01/21 02:09:56;;;;;;;40.28;18.70;;;-7.80;99.90;;;;;;4211724;28;20093;-60
2024/01/21 02:11:57;;;;;;;40.05;19.15;;;-7.70;99.90;;;;;;4211341;28;20057;-61
2024/01/21 02:13:58;;;;;;;46.70;19.33;;;-7.70;99.90;;;;;;4212278;28;20093;-59
2024/01/21 02:16:00;;;;;;;46.35;19.60;;;-7.60;99.90;;;;;;4211073;28;20116;-60
2024/01/21 02:18:01;;;;;;;48.00;22.40;;;-7.60;99.90;;;;;;4211715;28;20036;-61
2024/01/21 02:20:03;;;;;;;44.72;19.08;;;-7.60;99.90;;;;;;4211365;28;20024;-60
2024/01/21 02:22:04;;;;;;;40.85;18.15;;;-7.60;99.90;;;;;;4211921;28;20047;-61
2024/01/21 02:24:05;;;;;;;41.95;18.13;;;-7.60;99.90;;;;;;4211067;28;20035;-59
2024/01/21 02:26:07;;;;;;;42.55;17.65;;;-7.60;99.90;;;;;;4211562;28;20447;-58
2024/01/21 02:28:08;;;;;;;46.58;19.73;;;-7.50;99.90;;;;;;4211349;28;20032;-59
2024/01/21 02:30:09;;;;;;;40.08;18.00;;;-7.50;99.90;;;;;;4212050;28;20032;-61
2024/01/21 02:32:10;;;;;;;45.22;17.67;;;-7.50;99.90;;;;;;4211422;28;20418;-60
2024/01/21 02:34:11;;;;;;;37.17;17.88;;;-7.50;99.90;;;;;;4211428;28;20097;-59
2024/01/21 02:36:13;;;;;;;37.10;17.25;;;-7.50;99.90;;;;;;4211465;28;20468;-58
2024/01/21 02:38:14;;;;;;;39.72;17.95;;;-7.50;99.90;;;;;;4211468;28;20472;-59
2024/01/21 02:40:15;;;;;;;37.53;17.25;;;-7.60;99.90;;;;;;4211609;28;21067;-59
2024/01/21 02:42:16;;;;;;;37.35;15.77;;;-7.70;99.90;;;;;;4210788;28;20036;-61
2024/01/21 02:44:18;;;;;;;41.25;16.30;;;-7.70;99.90;;;;;;4211725;28;20476;-60
2024/01/21 02:46:20;;;;;;;36.55;16.73;;;-7.70;99.90;;;;;;4211082;28;20424;-59
2024/01/21 02:48:21;;;;;;;46.33;17.40;;;-7.70;99.90;;;;;;4211454;28;20039;-59
2024/01/21 02:50:22;;;;;;;40.00;17.02;;;-7.70;99.90;;;;;;4210483;28;20117;-60
2024/01/21 02:52:24;;;;;;;37.97;17.05;;;-7.70;99.90;;;;;;4211426;28;20097;-62
2024/01/21 02:54:25;;;;;;;33.60;15.95;;;-7.70;99.90;;;;;;4210805;28;20024;-59
2024/01/21 02:56:26;;;;;;;39.75;16.08;;;-7.70;99.90;;;;;;4211508;28;20426;-60
2024/01/21 02:58:27;;;;;;;35.42;15.13;;;-7.60;99.90;;;;;;4210838;28;20020;-59
2024/01/21 03:00:28;;;;;;;39.30;16.23;;;-7.60;99.90;;;;;;4211502;28;20024;-58
2024/01/21 03:02:30;;;;;;;37.72;16.88;;;-7.60;99.90;;;;;;4210853;28;20036;-60
2024/01/21 03:04:31;;;;;;;37.28;16.52;;;-7.60;99.90;;;;;;4211381;28;20085;-61
2024/01/21 03:06:32;;;;;;;39.03;17.35;;;-7.80;99.90;;;;;;4210723;28;20028;-60
2024/01/21 03:08:33;;;;;;;38.75;16.13;;;-7.80;99.90;;;;;;4210607;28;20382;-60
2024/01/21 03:10:35;;;;;;;38.03;16.80;;;-7.80;99.90;;;;;;4211046;28;20032;-60
2024/01/21 03:12:36;;;;;;;45.85;19.20;;;-7.90;99.90;;;;;;4210203;28;20043;-59
2024/01/21 03:14:38;;;;;;;43.65;18.80;;;-7.90;99.90;;;;;;4211621;28;20024;-59
2024/01/21 03:16:39;;;;;;;41.58;18.80;;;-8.00;99.90;;;;;;4210395;28;20477;-63
2024/01/21 03:18:40;;;;;;;40.28;17.15;;;-8.00;99.90;;;;;;4210809;28;20101;-60
2024/01/21 03:20:41;;;;;;;38.83;18.10;;;-8.10;99.90;;;;;;4210414;28;20020;-58
2024/01/21 03:22:42;;;;;;;41.20;17.42;;;-8.20;99.90;;;;;;4211292;28;20036;-57
2024/01/21 03:24:43;;;;;;;41.35;17.30;;;-8.20;99.90;;;;;;4208868;28;20073;-59
2024/01/21 03:26:45;;;;;;;39.63;16.23;;;-8.20;99.90;;;;;;4210809;28;20423;-60
2024/01/21 03:28:46;;;;;;;38.65;17.23;;;-8.20;99.90;;;;;;4210148;28;20093;-59
2024/01/21 03:30:47;;;;;;;39.90;16.90;;;-8.20;99.90;;;;;;4210920;28;20089;-60
2024/01/21 03:32:48;;;;;;;39.78;16.80;;;-8.20;99.90;;;;;;4210344;28;20052;-59
2024/01/21 03:34:51;;;;;;;36.65;15.60;;;-8.20;99.90;;;;;;4210679;28;20426;-60
2024/01/21 03:36:52;;;;;;;42.60;18.92;;;-8.20;99.90;;;;;;4209245;28;20039;-61
2024/01/21 03:38:53;;;;;;;40.00;17.08;;;-8.20;99.90;;;;;;4210449;28;20617;-61
2024/01/21 03:40:54;;;;;;;40.75;17.48;;;-8.20;99.90;;;;;;4210339;28;20075;-61
2024/01/21 03:42:56;;;;;;;38.15;17.13;;;-8.20;99.90;;;;;;4210020;28;20564;-61
2024/01/21 03:44:57;;;;;;;37.45;16.10;;;-8.20;99.90;;;;;;4210755;28;20043;-60
2024/01/21 03:47:00;;;;;;;39.35;16.88;;;-8.20;99.90;;;;;;4209819;28;20037;-61
2024/01/21 03:49:01;;;;;;;39.33;15.65;;;-8.10;99.90;;;;;;4210221;28;20032;-58
2024/01/21 03:51:02;;;;;;;38.85;16.52;;;-8.00;99.90;;;;;;4210044;28;20020;-59
2024/01/21 03:53:04;;;;;;;38.03;16.30;;;-8.00;99.90;;;;;;4210787;28;20043;-61
2024/01/21 03:55:05;;;;;;;38.33;16.30;;;-7.90;99.90;;;;;;4209081;28;20491;-59
2024/01/21 03:57:07;;;;;;;33.92;15.85;;;-8.00;99.90;;;;;;4210563;28;20028;-61
2024/01/21 03:59:08;;;;;;;35.80;17.33;;;-8.10;99.90;;;;;;4208343;28;20089;-61
2024/01/21 04:01:09;;;;;;;40.00;16.02;;;-8.20;99.90;;;;;;4210732;28;20040;-58
2024/01/21 04:03:10;;;;;;;40.13;17.65;;;-8.20;99.90;;;;;;4209777;28;20047;-59
2024/01/21 04:05:11;;;;;;;40.25;16.75;;;-8.30;99.90;;;;;;4210449;28;20526;-58
2024/01/21 04:07:12;;;;;;;43.20;17.38;;;-8.40;99.90;;;;;;4209832;28;20101;-59
2024/01/21 04:09:15;;;;;;;39.50;16.90;;;-8.40;99.90;;;;;;4209946;28;20036;-62
2024/01/21 04:11:16;;;;;;;34.92;16.67;;;-8.50;99.90;;;;;;4209973;28;20081;-61
2024/01/21 04:13:18;;;;;;;41.50;18.05;;;-8.50;99.90;;;;;;4210044;28;20032;-60
2024/01/21 04:15:19;;;;;;;35.65;15.98;;;-8.50;99.90;;;;;;4210562;28;20032;-60
2024/01/21 04:17:22;;;;;;;46.65;17.45;;;-8.40;99.90;;;;;;4209811;28;20028;-61
2024/01/21 04:19:24;;;;;;;39.67;16.77;;;-8.40;99.90;;;;;;4208939;28;20039;-60
2024/01/21 04:21:25;;;;;;;39.40;17.70;;;-8.40;99.90;;;;;;4209614;28;20086;-61
2024/01/21 04:23:26;;;;;;;40.47;16.83;;;-8.30;99.90;;;;;;4210447;28;20093;-59
2024/01/21 04:25:28;;;;;;;39.13;18.20;;;-8.30;99.90;;;;;;4208896;28;20028;-59
2024/01/21 04:27:29;;;;;;;35.28;16.98;;;-8.20;99.90;;;;;;4210338;28;20020;-58
2024/01/21 04:29:30;;;;;;;40.67;16.08;;;-8.20;99.90;;;;;;4208995;28;20411;-55
2024/01/21 04:31:31;;;;;;;38.90;16.80;;;-8.20;99.90;;;;;;4210348;28;20176;-59
2024/01/21 04:33:32;;;;;;;37.63;16.90;;;-8.20;99.90;;;;;;4209406;28;20024;-60
2024/01/21 04:35:35;;;;;;;45.75;15.57;;;-8.20;99.90;;;;;;4210022;28;20506;-61
2024/01/21 04:37:36;;;;;;;33.45;14.80;;;-8.20;99.90;;;;;;4209559;28;20073;-59
2024/01/21 04:39:37;;;;;;;38.17;15.00;;;-8.20;99.90;;;;;;4208398;28;20040;-59
2024/01/21 04:41:38;;;;;;;38.72;15.77;;;-8.20;99.90;;;;;;4209565;28;20085;-61
2024/01/21 04:43:40;;;;;;;42.78;16.95;;;-8.20;99.90;;;;;;4209637;28;20052;-58
2024/01/21 04:45:41;;;;;;;44.45;16.98;;;-8.20;99.90;;;;;;4209986;28;20520;-58
2024/01/21 04:47:42;;;;;;;41.80;17.08;;;-8.20;99.90;;;;;;4209126;28;20086;-60
2024/01/21 04:49:43;;;;;;;41.50;17.30;;;-8.20;99.90;;;;;;4209840;28;20024;-59
2024/01/21 04:51:44;;;;;;;50.08;21.77;;;-8.30;99.90;;;;;;4209364;28;20090;-60
2024/01/21 04:53:46;;;;;;;44.40;17.98;;;-8.30;99.90;;;;;;4209884;28;20016;-60
2024/01/21 04:55:47;;;;;;;45.13;19.63;;;-8.30;99.90;;;;;;4208820;28;20344;-60
2024/01/21 04:57:48;;;;;;;46.05;20.10;;;-8.40;99.90;;;;;;4209620;28;20036;-61
2024/01/21 04:59:49;;;;;;;47.85;19.48;;;-8.40;99.90;;;;;;4209154;28;20036;-60
2024/01/21 05:01:50;;;;;;;38.72;17.38;;;-8.30;99.90;;;;;;4210013;28;20058;-59
2024/01/21 05:03:51;;;;;;;40.72;17.23;;;-8.30;99.90;;;;;;4209030;28;20052;-60
2024/01/21 05:05:53;;;;;;;40.33;16.88;;;-8.20;99.90;;;;;;4210171;28;20024;-60
2024/01/21 05:07:54;;;;;;;45.47;21.98;;;-8.20;99.90;;;;;;4212128;28;20052;-60
2024/01/21 05:09:55;;;;;;;42.88;18.13;;;-8.20;99.90;;;;;;4213021;28;20085;-60
2024/01/21 05:11:57;;;;;;;41.30;20.83;;;-8.20;99.90;;;;;;4212712;28;20027;-61
2024/01/21 05:13:58;;;;;;;39.78;19.67;;;-8.20;99.90;;;;;;4213041;28;20094;-60
2024/01/21 05:15:59;;;;;;;34.25;14.93;;;-8.20;99.90;;;;;;4212989;28;20101;-59
2024/01/21 05:18:00;;;;;;;32.00;14.85;;;-8.20;99.90;;;;;;4212675;28;20020;-61
2024/01/21 05:20:03;;;;;;;32.55;14.52;;;-8.30;99.90;;;;;;4212925;28;20093;-62
2024/01/21 05:22:04;;;;;;;30.83;15.48;;;-8.30;99.90;;;;;;4212228;28;20070;-60
2024/01/21 05:24:05;;;;;;;33.88;15.05;;;-8.40;99.90;;;;;;4213190;28;20522;-58
2024/01/21 05:26:06;;;;;;;37.90;15.80;;;-8.40;99.90;;;;;;4212056;28;20081;-57
2024/01/21 05:28:08;;;;;;;37.30;14.90;;;-8.40;99.90;;;;;;4213198;28;20442;-59
2024/01/21 05:30:11;;;;;;;31.75;14.35;;;-8.40;99.90;;;;;;4212007;28;20112;-57
2024/01/21 05:32:12;;;;;;;30.90;13.63;;;-8.50;99.90;;;;;;4213201;28;20077;-60
2024/01/21 05:34:14;;;;;;;33.08;14.15;;;-8.50;99.90;;;;;;4212114;28;20414;-61
2024/01/21 05:36:15;;;;;;;32.85;13.38;;;-8.50;99.90;;;;;;4212814;28;20422;-60
2024/01/21 05:38:16;;;;;;;29.05;13.20;;;-8.50;99.90;;;;;;4211639;28;20032;-61
2024/01/21 05:40:17;;;;;;;30.60;13.80;;;-8.50;99.90;;;;;;4212644;28;20034;-60
2024/01/21 05:42:18;;;;;;;30.02;14.35;;;-8.50;99.90;;;;;;4211584;28;20040;-60
2024/01/21 05:44:19;;;;;;;30.67;15.30;;;-8.50;99.90;;;;;;4212582;28;20082;-56
2024/01/21 05:46:21;;;;;;;28.05;13.75;;;-8.40;99.90;;;;;;4212360;28;20495;-60
2024/01/21 05:48:22;;;;;;;29.80;14.48;;;-8.30;99.90;;;;;;4212234;28;20073;-60
2024/01/21 05:50:23;;;;;;;29.83;12.55;;;-8.20;99.90;;;;;;4212325;28;20492;-58
2024/01/21 05:52:24;;;;;;;21.65;11.13;;;-8.20;99.90;;;;;;4212017;28;20049;-60
2024/01/21 05:54:26;;;;;;;24.50;12.80;;;-8.10;99.90;;;;;;4212718;28;20024;-60
2024/01/21 05:56:27;;;;;;;31.70;15.15;;;-8.10;99.90;;;;;;4211519;28;20032;-59
2024/01/21 05:58:28;;;;;;;39.60;18.60;;;-8.10;99.90;;;;;;4212723;28;20116;-60
2024/01/21 06:00:29;;;;;;;31.83;16.90;;;-8.00;99.90;;;;;;4211635;28;20494;-61
2024/01/21 06:02:32;;;;;;;34.25;17.25;;;-7.90;99.90;;;;;;4212554;28;20468;-60
2024/01/21 06:04:33;;;;;;;27.80;14.10;;;-7.80;99.90;;;;;;4211612;28;20522;-60
2024/01/21 06:06:34;;;;;;;27.05;13.93;;;-7.70;99.90;;;;;;4212417;28;20028;-60
2024/01/21 06:08:35;;;;;;;25.80;13.30;;;-7.60;99.90;;;;;;4211403;28;20542;-59
2024/01/21 06:10:37;;;;;;;26.65;11.98;;;-7.50;99.90;;;;;;4212045;28;20557;-61
2024/01/21 06:12:38;;;;;;;26.65;12.15;;;-7.40;99.90;;;;;;4211705;28;20024;-59
2024/01/21 06:14:39;;;;;;;26.52;10.90;;;-7.40;99.90;;;;;;4211949;28;20044;-56
2024/01/21 06:16:40;;;;;;;29.15;11.77;;;-7.20;99.90;;;;;;4211732;28;20028;-60
2024/01/21 06:18:42;;;;;;;21.75;10.05;;;-7.00;99.90;;;;;;4210807;28;20032;-60
2024/01/21 06:20:43;;;;;;;20.92;9.80;;;-7.00;99.90;;;;;;4211935;28;20012;-60
2024/01/21 06:22:44;;;;;;;25.13;11.60;;;-7.10;99.90;;;;;;4210767;28;20048;-61
2024/01/21 06:24:45;;;;;;;29.15;12.73;;;-7.10;99.90;;;;;;4211600;28;20549;-60
2024/01/21 06:26:46;;;;;;;41.47;15.02;;;-7.20;99.90;;;;;;4210924;28;20105;-58
2024/01/21 06:28:50;;;;;;;26.77;11.15;;;-7.20;99.90;;;;;;4212233;28;20028;-60
2024/01/21 06:30:51;;;;;;;21.02;10.18;;;-7.30;99.90;;;;;;4211235;28;20036;-60
2024/01/21 06:32:52;;;;;;;25.30;11.73;;;-7.30;99.90;;;;;;4212164;28;20468;-61
2024/01/21 06:34:53;;;;;;;25.33;11.73;;;-7.30;99.90;;;;;;4210668;28;20032;-58
2024/01/21 06:36:55;;;;;;;22.17;11.30;;;-7.50;99.90;;;;;;4211784;28;20032;-61
2024/01/21 06:38:56;;;;;;;27.55;11.68;;;-7.50;99.90;;;;;;4210922;28;20017;-59
2024/01/21 06:40:57;;;;;;;25.95;11.32;;;-7.50;99.90;;;;;;4211168;28;20373;-59
2024/01/21 06:42:58;;;;;;;28.67;11.38;;;-7.50;99.90;;;;;;4210605;28;20074;-61
2024/01/21 06:44:59;;;;;;;26.40;10.25;;;-7.50;99.90;;;;;;4211757;28;20062;-59
2024/01/21 06:47:01;;;;;;;23.33;10.65;;;-7.50;99.90;;;;;;4211488;28;20553;-62
2024/01/21 06:49:02;;;;;;;25.50;10.15;;;-7.50;99.90;;;;;;4211400;28;20069;-59
2024/01/21 06:51:10;;;;;;;23.23;11.10;;;-7.50;99.90;;;;;;4210485;28;20028;-60
2024/01/21 06:53:12;;;;;;;22.48;9.68;;;-7.60;99.90;;;;;;4210683;28;20089;-61
2024/01/21 06:55:14;;;;;;;17.98;9.13;;;-7.60;99.90;;;;;;4211484;28;20032;-58
2024/01/21 06:57:15;;;;;;;24.15;10.52;;;-7.60;99.90;;;;;;4210528;28;20039;-60
2024/01/21 06:59:16;;;;;;;24.55;10.43;;;-7.60;99.90;;;;;;4211652;28;20024;-58
2024/01/21 07:01:17;;;;;;;20.52;9.73;;;-7.50;99.90;;;;;;4210279;28;20089;-60
2024/01/21 07:03:19;;;;;;;25.88;10.30;;;-7.50;99.90;;;;;;4211519;28;20028;-59
2024/01/21 07:05:20;;;;;;;22.90;10.93;;;-7.40;99.90;;;;;;4210598;28;20032;-59
2024/01/21 07:07:21;;;;;;;23.73;11.48;;;-7.30;99.90;;;;;;4211446;28;20529;-60
2024/01/21 07:09:24;;;;;;;27.88;12.80;;;-7.20;99.90;;;;;;4210505;28;20085;-56
2024/01/21 07:11:25;;;;;;;31.67;13.23;;;-7.20;99.90;;;;;;4211123;28;20027;-60
2024/01/21 07:13:26;;;;;;;29.23;13.32;;;-7.10;99.90;;;;;;4208804;28;20116;-56
2024/01/21 07:15:27;;;;;;;34.35;14.23;;;-7.10;99.90;;;;;;4211388;28;20040;-59
2024/01/21 07:17:28;;;;;;;30.13;13.70;;;-7.00;99.90;;;;;;4210740;28;20442;-60
2024/01/21 07:19:30;;;;;;;34.00;12.85;;;-6.90;99.90;;;;;;4210300;28;20085;-53
2024/01/21 07:21:31;;;;;;;33.15;14.52;;;-6.80;99.90;;;;;;4210227;28;20040;-60
2024/01/21 07:23:32;;;;;;;27.15;13.20;;;-6.70;99.90;;;;;;4210662;28;20035;-61
2024/01/21 07:25:33;;;;;;;25.35;11.48;;;-6.50;99.90;;;;;;4210703;28;20470;-60
2024/01/21 07:27:34;;;;;;;28.55;13.20;;;-6.50;99.90;;;;;;4209472;28;20112;-56
2024/01/21 07:29:36;;;;;;;25.23;12.35;;;-6.40;99.90;;;;;;4210848;28;20077;-60
2024/01/21 07:31:37;;;;;;;24.33;13.65;;;-6.30;99.90;;;;;;4209541;28;20044;-60
2024/01/21 07:33:38;;;;;;;27.00;13.02;;;-6.30;99.90;;;;;;4211113;28;20028;-59
2024/01/21 07:35:39;;;;;;;28.50;13.65;;;-6.20;99.90;;;;;;4209976;28;20034;-59
2024/01/21 07:37:40;;;;;;;31.80;14.15;;;-6.00;99.90;;;;;;4210457;28;20081;-59
2024/01/21 07:39:41;;;;;;;31.05;14.35;;;-5.90;99.90;;;;;;4209994;28;20035;-59
2024/01/21 07:41:42;;;;;;;29.42;13.63;;;-5.90;99.90;;;;;;4210469;28;20036;-60
2024/01/21 07:43:44;;;;;;;29.42;13.50;;;-5.90;99.90;;;;;;4210086;28;20081;-60
2024/01/21 07:45:45;;;;;;;33.08;12.73;;;-5.80;99.90;;;;;;4211018;28;20028;-60
2024/01/21 07:47:46;;;;;;;29.27;12.93;;;-5.80;99.90;;;;;;4210349;28;20077;-60
2024/01/21 07:49:47;;;;;;;28.08;12.85;;;-5.70;99.90;;;;;;4210212;28;20028;-60
2024/01/21 07:51:48;;;;;;;33.10;13.75;;;-5.70;99.90;;;;;;4210429;28;20028;-60
2024/01/21 07:53:50;;;;;;;29.38;12.40;;;-5.60;99.90;;;;;;4209999;28;20028;-60
2024/01/21 07:55:53;;;;;;;28.92;12.25;;;-5.70;99.90;;;;;;4210530;28;20020;-61
2024/01/21 07:57:54;;;;;;;25.38;12.13;;;-5.60;99.90;;;;;;4209773;28;20073;-62
2024/01/21 07:59:56;;;;;;;32.75;13.02;;;-5.60;99.90;;;;;;4210566;28;20032;-61
2024/01/21 08:01:57;;;;;;;26.70;11.95;;;-5.60;99.90;;;;;;4209250;28;20035;-60
2024/01/21 08:03:58;;;;;;;25.23;10.90;;;-5.50;99.90;;;;;;4210361;28;20056;-61
2024/01/21 08:05:59;;;;;;;24.85;10.98;;;-5.40;99.90;;;;;;4209634;28;20042;-61
2024/01/21 08:08:00;;;;;;;26.77;12.40;;;-5.20;99.90;;;;;;4208993;28;20036;-60
2024/01/21 08:10:04;;;;;;;25.15;11.20;;;-5.10;99.90;;;;;;4209055;28;20036;-60
2024/01/21 08:12:06;;;;;;;26.67;11.32;;;-5.00;99.90;;;;;;4210116;28;20469;-60
2024/01/21 08:14:07;;;;;;;28.35;12.30;;;-4.90;99.90;;;;;;4209948;28;20066;-59
2024/01/21 08:16:08;;;;;;;24.58;12.27;;;-4.80;99.90;;;;;;4209445;28;20057;-60
2024/01/21 08:18:09;;;;;;;30.67;12.85;;;-4.90;99.90;;;;;;4209643;28;20040;-60
2024/01/21 08:20:11;;;;;;;29.10;13.93;;;-4.80;99.90;;;;;;4209809;28;20061;-60
2024/01/21 08:22:12;;;;;;;31.15;15.13;;;-4.60;99.90;;;;;;4209877;28;20373;-60
2024/01/21 08:24:14;;;;;;;32.70;13.40;;;-4.50;99.90;;;;;;4209766;28;20047;-60
2024/01/21 08:26:16;;;;;;;31.80;13.02;;;-4.30;99.90;;;;;;4209676;28;20390;-61
2024/01/21 08:28:17;;;;;;;21.15;12.25;;;-4.20;99.90;;;;;;4209527;28;20070;-61
2024/01/21 08:30:19;;;;;;;27.98;12.57;;;-4.20;99.90;;;;;;4209746;28;20531;-60
2024/01/21 08:32:20;;;;;;;25.17;12.38;;;-4.10;99.90;;;;;;4209397;28;20036;-59
2024/01/21 08:34:21;;;;;;;28.48;12.32;;;-4.10;99.90;;;;;;4210050;28;20032;-60
2024/01/21 08:36:23;;;;;;;24.60;11.10;;;-4.00;99.90;;;;;;4209182;28;20480;-59
2024/01/21 08:38:24;;;;;;;24.52;11.98;;;-3.90;99.90;;;;;;4210292;28;20109;-60
2024/01/21 08:40:25;;;;;;;26.20;11.57;;;-3.70;99.90;;;;;;4209159;28;20037;-59
2024/01/21 08:42:27;;;;;;;28.80;12.57;;;-3.60;99.90;;;;;;4209468;28;20261;-59
2024/01/21 08:44:28;;;;;;;26.77;13.70;;;-3.50;99.90;;;;;;4209571;28;20071;-60
2024/01/21 08:46:30;;;;;;;30.37;16.10;;;-3.40;99.90;;;;;;4209443;28;20268;-60
2024/01/21 08:48:31;;;;;;;28.40;15.27;;;-3.20;99.90;;;;;;4209404;28;20326;-60
2024/01/21 08:50:32;;;;;;;30.53;15.10;;;-3.20;99.90;;;;;;4209158;28;20269;-61
2024/01/21 08:52:33;;;;;;;29.93;15.87;;;-3.10;99.90;;;;;;4208992;28;20269;-60
2024/01/21 08:54:34;;;;;;;25.47;13.13;;;-3.10;99.90;;;;;;4209363;28;20346;-59
2024/01/21 08:56:35;;;;;;;27.23;13.03;;;-3.00;99.90;;;;;;4209319;28;20273;-59
2024/01/21 08:58:37;;;;;;;27.80;13.37;;;-2.90;99.90;;;;;;4208802;28;20341;-60
2024/01/21 09:00:38;;;;;;;29.60;13.73;;;-2.90;99.90;;;;;;4208554;28;20273;-58
2024/01/21 09:02:39;;;;;;;22.77;12.30;;;-2.80;99.90;;;;;;4208866;28;20322;-60
2024/01/21 09:04:41;;;;;;;25.57;11.70;;;-2.70;99.90;;;;;;4209977;28;20296;-60
2024/01/21 09:06:42;;;;;;;25.97;12.43;;;-2.60;99.90;;;;;;4206924;28;20346;-59
2024/01/21 09:08:43;;;;;;;21.90;11.07;;;-2.60;99.90;;;;;;4209586;28;20861;-60
2024/01/21 09:10:45;;;;;;;30.83;13.80;;;-2.50;99.90;;;;;;4208838;28;20280;-60
2024/01/21 09:12:46;;;;;;;26.13;12.33;;;-2.50;99.90;;;;;;4208980;28;20277;-60
2024/01/21 09:14:47;;;;;;;27.77;13.27;;;-2.50;99.90;;;;;;4209037;28;20559;-59
2024/01/21 09:16:48;;;;;;;32.93;13.57;;;-2.50;99.90;;;;;;4209484;28;20268;-60
2024/01/21 09:18:49;;;;;;;27.67;11.97;;;-2.40;99.90;;;;;;4209116;28;20768;-60
2024/01/21 09:20:51;;;;;;;22.73;9.20;;;-2.30;99.90;;;;;;4209318;28;20281;-60
2024/01/21 09:22:52;;;;;;;25.00;13.23;;;-2.20;99.90;;;;;;4209032;28;20349;-58
2024/01/21 09:24:53;;;;;;;23.03;11.03;;;-2.20;99.90;;;;;;4208966;28;20345;-62
2024/01/21 09:26:54;;;;;;;21.20;9.57;;;-2.20;99.90;;;;;;4209176;28;20760;-60
2024/01/21 09:28:55;;;;;;;26.90;9.97;;;-2.10;99.90;;;;;;4208593;28;20334;-59
2024/01/21 09:30:57;;;;;;;21.23;10.03;;;-2.10;99.90;;;;;;4209155;28;20269;-60
2024/01/21 09:32:58;;;;;;;17.33;10.00;;;-2.10;99.90;;;;;;4208791;28;20310;-59
2024/01/21 09:34:59;;;;;;;26.00;11.97;;;-2.00;99.90;;;;;;4208850;28;20257;-60
2024/01/21 09:37:00;;;;;;;25.73;9.87;;;-2.00;99.90;;;;;;4208424;28;20290;-60
2024/01/21 09:39:02;;;;;;;22.90;9.83;;;-1.90;99.90;;;;;;4209344;28;20334;-61
2024/01/21 09:41:41;;;;;;;22.17;10.80;;;-1.90;99.90;;;;;;4208633;28;20302;-60
2024/01/21 09:43:42;;;;;;;26.90;9.87;;;-1.90;99.90;;;;;;4209245;28;20288;-61
2024/01/21 09:45:43;;;;;;;24.70;10.40;;;-1.90;99.90;;;;;;4208956;28;20252;-61
2024/01/21 09:47:47;;;;;;;24.10;9.20;;;-1.80;99.90;;;;;;4209670;28;20376;-61
2024/01/21 09:49:49;;;;;;;21.23;9.53;;;-1.80;99.90;;;;;;4208334;28;20676;-60
2024/01/21 09:51:51;;;;;;;25.60;9.87;;;-1.60;99.90;;;;;;4209191;28;20302;-60
2024/01/21 09:53:52;;;;;;;19.63;9.20;;;-1.40;99.90;;;;;;4209838;28;20302;-61
2024/01/21 09:55:58;;;;;;;21.30;10.10;;;-1.30;99.90;;;;;;4212287;28;20906;-60
2024/01/21 09:58:06;;;;;;;18.47;9.53;;;-1.20;99.90;;;;;;4211682;28;20261;-61
2024/01/21 10:00:10;;;;;;;18.60;8.73;;;-1.10;99.90;;;;;;4212439;28;20729;-62
2024/01/21 10:02:17;;;;;;;22.70;8.50;;;-1.00;99.90;;;;;;4208909;28;20273;-60
2024/01/21 10:04:20;;;;;;;15.90;7.50;;;-1.00;99.90;;;;;;4211731;28;20338;-60
2024/01/21 10:06:22;;;;;;;17.60;8.87;;;-0.90;99.90;;;;;;4211549;28;20272;-61
2024/01/21 10:08:23;;;;;;;19.23;9.23;;;-0.80;99.90;;;;;;4211943;28;20268;-60
2024/01/21 10:10:24;;;;;;;18.67;8.63;;;-0.80;99.90;;;;;;4211657;28;20318;-60
2024/01/21 10:12:25;;;;;;;23.33;9.57;;;-0.70;99.90;;;;;;4211695;28;20315;-62
2024/01/21 10:14:27;;;;;;;19.63;9.27;;;-0.80;99.90;;;;;;4211591;28;20265;-62
2024/01/21 10:16:28;;;;;;;22.03;8.97;;;-0.90;99.90;;;;;;4211672;28;20269;-61